Overview Statistics Trail Chart Weather Telemetry Raw packets
 

This is the latest recevied weather packets stored in our database for station/object YO8PIC-13. If no packets are shown the sender has not sent any weather packets the latest 10 day(s).

<< 25 26 27 28 29 30 31 >>
Time Temp. Humidity Pressure Rain* Wind** Luminosity Snow
1788174739 41.11° C 13% 1018.4 hPa - - - -
1788174139 38.33° C 15% 1018.6 hPa - - - -
1788173539 45.56° C 11% 1018.6 hPa - - - -
1788172938 40.56° C 12% 1018.9 hPa - - - -
1788172341 45.56° C 10% 1018.9 hPa - - - -
1788171739 41.11° C 13% 1019 hPa - - - -
1788171139 37.78° C 16% 1019.1 hPa - - - -
1788170539 42.78° C 12% 1019.2 hPa - - - -
1788169939 35.56° C 17% 1019.3 hPa - - - -
1788169339 42.22° C 12% 1019.3 hPa - - - -
1788168739 43.89° C 11% 1019.4 hPa - - - -
1788168139 38.89° C 16% 1019.5 hPa - - - -
1788167539 40° C 15% 1019.6 hPa - - - -
1788166939 38.33° C 16% 1019.7 hPa - - - -
1788166339 36.11° C 18% 1020 hPa - - - -
1788165739 38.33° C 18% 1020 hPa - - - -
1788165139 30° C 27% 1020.2 hPa - - - -
1788164539 29.44° C 28% 1020.3 hPa - - - -
1788163938 29.44° C 30% 1020.4 hPa - - - -
1788163339 28.89° C 29% 1020.4 hPa - - - -
1788162738 28.89° C 30% 1020.5 hPa - - - -
1788162139 28.33° C 32% 1020.4 hPa - - - -
1788161539 27.78° C 31% 1020.5 hPa - - - -
1788160939 27.22° C 33% 1020.4 hPa - - - -
1788160339 26.67° C 34% 1020.6 hPa - - - -

* Rain since midnight (hover to see other rain measurements)
** Current wind speed in m/s (hover to see current wind gust speed)